Startpagina
METAR-TAF:

METAR-TAF

Vliegvelden :

Euro, Nederland

Productieplatform

breedte: 51-59-52N, lengte: 3-16-30E, hoogte: 18 m

Actueel weer

Dit bericht is 37 minuten geleden gemaakt, om 05:25 UTC
Wind 20 kt uit het zuidzuidwesten met uitschieters tot 22 kt
Temperatuur 15°C
Vochtigheid 88%
Druk 1018 hPa
Zicht 10 km of meer

METAR: EHSA 240525Z AUTO 21020G22KT 9999 ///////// 15/13 Q1018 W15/H10

Tijdstip: 08:02 (06:02 UTC)


TAF: ontbreekt

Waarnemingen en weersverwachtingen van meer dan 4000 vliegvelden (METAR en TAF).

De beschikbare stations zijn de gele en rode punten op de kaart.

Ga met uw muis naar het station om de naam te zien.

Klik dan om waarnemingen en weersverwachtingen te zien.

kaart wijzigen: klik op de groene knoppen met een zwart kruis om in te zoomen, op de groene knop met een streepje om uit te zoomen of op de groene pijlen voor aangrenzende kaarten.


METAR-TAF: